Time;durP1;ratioP1;P1;durP2;ratioP2;P2;SDS_P1;SDS_P2;PMS_P1;PMS_P2;Temp;Humidity;BMP_temperature;BMP_pressure;BME280_temperature;BME280_humidity;BME280_pressure;Samples;Min_cycle;Max_cycle;Signal;HPM_P1;HPM_P2
2022/12/27 00:00:24;;;;;;;7.78;2.53;;;4.10;99.90;;;;;;5094567;28;20475;-77
2022/12/27 00:02:49;;;;;;;13.52;3.15;;;4.10;99.90;;;;;;5094272;28;20476;-77
2022/12/27 00:05:16;;;;;;;4.70;2.03;;;4.80;99.90;;;;;;5093524;28;20051;-78
2022/12/27 00:07:42;;;;;;;7.60;2.85;;;4.00;99.90;;;;;;5076801;28;20052;-78
2022/12/27 00:10:09;;;;;;;7.50;3.10;;;3.90;99.90;;;;;;5077648;28;20044;-77
2022/12/27 00:12:35;;;;;;;7.25;2.38;;;3.90;99.90;;;;;;5078379;28;20050;-77
2022/12/27 00:15:02;;;;;;;7.50;2.95;;;3.90;99.90;;;;;;5098128;28;20463;-77
2022/12/27 00:17:28;;;;;;;6.00;2.42;;;3.80;99.90;;;;;;5081012;28;20271;-77
2022/12/27 00:19:54;;;;;;;8.95;2.50;;;3.90;99.90;;;;;;5081040;28;20514;-77
2022/12/27 00:22:19;;;;;;;10.15;3.05;;;3.90;99.90;;;;;;5064457;28;20052;-75
2022/12/27 00:24:46;;;;;;;7.18;2.08;;;3.90;99.90;;;;;;5097485;28;20047;-76
2022/12/27 00:27:12;;;;;;;4.45;1.85;;;3.90;99.90;;;;;;5097696;28;20040;-76
2022/12/27 00:29:37;;;;;;;10.57;2.30;;;3.90;99.90;;;;;;5097562;28;20044;-75
2022/12/27 00:32:03;;;;;;;11.30;2.38;;;3.90;99.90;;;;;;5081050;28;20556;-76
2022/12/27 00:34:29;;;;;;;7.97;2.13;;;3.90;99.90;;;;;;5081046;28;20044;-76
2022/12/27 00:36:55;;;;;;;9.40;2.58;;;3.90;99.90;;;;;;5080557;28;20078;-76
2022/12/27 00:39:20;;;;;;;8.02;2.30;;;3.90;99.90;;;;;;5097527;28;20043;-76
2022/12/27 00:41:46;;;;;;;6.35;2.47;;;3.90;99.90;;;;;;5097572;28;20086;-77
2022/12/27 00:44:12;;;;;;;6.70;2.00;;;4.00;99.90;;;;;;5080801;28;20391;-76
2022/12/27 00:46:38;;;;;;;5.25;1.63;;;4.00;99.90;;;;;;5096978;28;20043;-78
2022/12/27 00:49:03;;;;;;;6.50;1.90;;;4.20;99.90;;;;;;5080548;28;20044;-76
2022/12/27 00:51:29;;;;;;;10.63;2.25;;;4.00;99.90;;;;;;5097378;28;20044;-76
2022/12/27 00:53:55;;;;;;;6.55;2.05;;;4.10;99.90;;;;;;5097118;28;20044;-75
2022/12/27 00:56:28;;;;;;;8.50;1.95;;;4.10;99.90;;;;;;5097279;28;20058;-77
2022/12/27 00:58:57;;;;;;;10.23;2.15;;;4.10;99.90;;;;;;5080341;28;20216;-76
2022/12/27 01:01:24;;;;;;;5.25;1.85;;;4.10;99.90;;;;;;5097152;28;20043;-76
2022/12/27 01:03:51;;;;;;;7.35;2.10;;;4.10;99.90;;;;;;5096971;28;20044;-76
2022/12/27 01:06:19;;;;;;;9.25;2.00;;;4.40;99.90;;;;;;5079707;28;20051;-76
2022/12/27 01:08:46;;;;;;;9.20;1.90;;;4.30;99.90;;;;;;5096872;28;20040;-78
2022/12/27 01:11:14;;;;;;;9.23;1.70;;;4.20;99.90;;;;;;5097063;28;20047;-77
2022/12/27 01:13:40;;;;;;;7.65;2.40;;;4.20;99.90;;;;;;5096790;28;20054;-79
2022/12/27 01:16:15;;;;;;;9.13;2.15;;;4.20;99.90;;;;;;5080167;28;20055;-76
2022/12/27 01:18:42;;;;;;;6.05;2.00;;;4.40;99.90;;;;;;5079914;28;20130;-77
2022/12/27 01:21:10;;;;;;;8.52;1.92;;;4.40;99.90;;;;;;5096585;28;20451;-77
2022/12/27 01:23:36;;;;;;;10.32;2.42;;;4.40;99.90;;;;;;5096887;28;20044;-77
2022/12/27 01:26:14;;;;;;;7.40;1.40;;;4.60;99.90;;;;;;5096108;28;20122;-76
2022/12/27 01:28:40;;;;;;;6.80;1.98;;;4.40;99.90;;;;;;5096621;28;20097;-77
2022/12/27 01:31:14;;;;;;;6.72;1.58;;;4.40;99.90;;;;;;5079913;28;20039;-77
2022/12/27 01:33:40;;;;;;;8.40;1.80;;;4.50;99.90;;;;;;5096450;28;20075;-79
2022/12/27 01:36:20;;;;;;;5.45;1.75;;;4.50;99.90;;;;;;5079692;28;20078;-76
2022/12/27 01:38:48;;;;;;;6.43;1.30;;;4.50;99.90;;;;;;5096262;28;20440;-75
2022/12/27 01:44:38;;;;;;;5.03;1.45;;;4.60;99.90;;;;;;5096306;28;20043;-77
2022/12/27 01:47:50;;;;;;;5.35;2.00;;;4.70;99.90;;;;;;5079255;28;20087;-77
2022/12/27 01:50:32;;;;;;;8.05;1.25;;;4.70;99.90;;;;;;5072763;28;20150;-75
2022/12/27 01:53:20;;;;;;;7.32;1.52;;;4.70;99.90;;;;;;5079174;28;20079;-75
2022/12/27 01:56:05;;;;;;;13.18;2.08;;;4.70;99.90;;;;;;5078966;28;20078;-79
2022/12/27 01:58:35;;;;;;;9.02;2.70;;;4.70;99.90;;;;;;5079240;28;20045;-76
2022/12/27 02:01:02;;;;;;;6.00;1.65;;;4.80;99.90;;;;;;5078642;28;20387;-74
2022/12/27 02:03:34;;;;;;;5.32;1.90;;;4.90;99.90;;;;;;5079420;28;20036;-80
2022/12/27 02:06:01;;;;;;;8.88;2.05;;;4.80;99.90;;;;;;5078418;28;20052;-77
2022/12/27 02:08:54;;;;;;;5.13;1.65;;;4.90;99.90;;;;;;5079125;28;20051;-78
2022/12/27 02:11:49;;;;;;;6.05;2.05;;;5.10;99.90;;;;;;5078891;28;20399;-76
2022/12/27 02:14:12;;;;;;;11.32;2.28;;;5.20;99.90;;;;;;5095362;28;20055;-76
2022/12/27 02:16:38;;;;;;;7.25;1.77;;;5.30;99.90;;;;;;5078817;28;20047;-76
2022/12/27 02:19:21;;;;;;;5.38;1.63;;;5.50;99.90;;;;;;5110870;27;20051;-77
2022/12/27 02:21:47;;;;;;;6.03;1.33;;;5.30;99.90;;;;;;5116066;27;20130;-79
2022/12/27 02:24:15;;;;;;;6.95;1.40;;;5.40;99.90;;;;;;5097469;28;20119;-78
2022/12/27 02:26:47;;;;;;;12.93;1.23;;;5.30;99.90;;;;;;5094236;28;20149;-78
2022/12/27 02:29:37;;;;;;;3.42;1.33;;;5.30;99.90;;;;;;5090116;28;20288;-77
2022/12/27 02:32:19;;;;;;;4.85;1.58;;;5.30;99.90;;;;;;5077504;28;20037;-76
2022/12/27 02:35:17;;;;;;;8.23;2.03;;;5.20;99.90;;;;;;5095311;28;20135;-76
2022/12/27 02:38:01;;;;;;;5.97;1.30;;;5.10;99.90;;;;;;5095388;28;20039;-75
2022/12/27 02:54:51;;;;;;;7.90;1.33;;;4.70;99.90;;;;;;5107548;27;20126;-75
2022/12/27 02:57:56;;;;;;;8.90;1.77;;;4.70;99.90;;;;;;5132712;27;20044;-74
2022/12/27 03:03:29;;;;;;;10.77;1.60;;;4.70;99.90;;;;;;5113708;28;20054;-74
2022/12/27 03:06:39;;;;;;;6.38;1.50;;;4.70;99.90;;;;;;5077363;28;20130;-73
2022/12/27 03:18:21;;;;;;;9.23;1.40;;;4.80;99.90;;;;;;5114830;28;20058;-75
2022/12/27 03:26:22;;;;;;;8.07;1.58;;;4.80;99.90;;;;;;5105245;28;20119;-74
2022/12/27 03:34:31;;;;;;;4.18;1.52;;;5.10;99.90;;;;;;5115590;28;20130;-75
2022/12/27 03:40:17;;;;;;;;;;;5.10;99.90;;;;;;5112217;28;20115;-76
2022/12/27 03:48:55;;;;;;;8.48;1.63;;;5.00;99.90;;;;;;5098263;28;20044;-76
2022/12/27 03:51:23;;;;;;;10.20;1.52;;;5.10;99.90;;;;;;5094083;28;20043;-75
2022/12/27 03:53:53;;;;;;;5.13;1.65;;;5.40;99.90;;;;;;5114386;27;20049;-75
2022/12/27 03:56:19;;;;;;;5.32;1.42;;;5.40;99.90;;;;;;5099541;27;20061;-74
2022/12/27 03:58:45;;;;;;;6.25;1.88;;;5.10;99.90;;;;;;5101917;27;20051;-83
2022/12/27 04:01:11;;;;;;;4.45;1.48;;;5.20;99.90;;;;;;5084637;27;20043;-76
2022/12/27 04:03:36;;;;;;;8.07;1.80;;;5.50;99.90;;;;;;5082442;27;20038;-75
2022/12/27 04:06:02;;;;;;;7.97;1.42;;;5.20;99.90;;;;;;5118020;27;20095;-75
2022/12/27 04:35:49;;;;;;;4.82;1.35;;;4.70;99.90;;;;;;5101446;27;20055;-75
2022/12/27 04:38:14;;;;;;;5.40;1.30;;;5.10;99.90;;;;;;5100943;27;20487;-75
2022/12/27 04:54:56;;;;;;;8.90;1.40;;;4.70;99.90;;;;;;5102318;27;20520;-76
2022/12/27 04:57:21;;;;;;;10.25;1.80;;;4.70;99.90;;;;;;5102655;27;20119;-75
2022/12/27 05:02:32;;;;;;;8.20;1.50;;;4.40;99.90;;;;;;4747585;28;10000075;-75
2022/12/27 05:04:58;;;;;;;6.70;1.83;;;4.50;99.90;;;;;;5077708;27;20086;-74
2022/12/27 05:15:37;;;;;;;3.85;1.20;;;4.80;99.90;;;;;;5114944;27;20047;-76
2022/12/27 05:18:03;;;;;;;5.07;1.35;;;5.10;99.90;;;;;;5117357;27;20054;-75
2022/12/27 05:20:29;;;;;;;5.40;1.83;;;4.90;99.90;;;;;;5080847;27;20094;-74
2022/12/27 05:25:44;;;;;;;10.18;1.65;;;4.80;99.90;;;;;;5101471;27;20134;-74
2022/12/27 05:28:11;;;;;;;;;;;4.60;99.90;;;;;;5101245;28;20100;-74
2022/12/27 05:30:39;;;;;;;6.63;1.40;;;4.60;99.90;;;;;;5096645;27;19919;-74
2022/12/27 05:33:05;;;;;;;8.57;1.33;;;4.50;99.90;;;;;;5117088;27;20043;-74
2022/12/27 05:35:32;;;;;;;7.75;1.38;;;4.40;99.90;;;;;;5099388;27;20101;-75
2022/12/27 05:37:58;;;;;;;5.25;1.50;;;4.50;99.90;;;;;;5104555;28;20058;-75
2022/12/27 05:40:24;;;;;;;9.93;1.67;;;4.30;99.90;;;;;;5105545;27;20047;-74
2022/12/27 05:42:50;;;;;;;5.53;1.50;;;4.60;99.90;;;;;;5106567;28;20391;-75
2022/12/27 05:45:17;;;;;;;8.93;1.67;;;4.30;99.90;;;;;;5083016;28;20406;-77
2022/12/27 05:47:43;;;;;;;7.40;1.88;;;4.60;99.90;;;;;;5096333;28;20047;-75
2022/12/27 05:50:09;;;;;;;10.35;1.75;;;4.20;99.90;;;;;;5095315;28;20552;-74
2022/12/27 05:56:18;;;;;;;3.53;1.17;;;4.10;99.90;;;;;;5116813;27;20034;-75
2022/12/27 05:58:44;;;;;;;6.38;1.27;;;4.20;99.90;;;;;;5099327;27;20096;-75
2022/12/27 06:01:12;;;;;;;6.10;1.40;;;4.10;99.90;;;;;;5099325;27;20552;-74
2022/12/27 06:03:38;;;;;;;8.18;1.63;;;4.20;99.90;;;;;;5115790;27;20046;-75
2022/12/27 06:06:05;;;;;;;7.93;1.75;;;4.80;99.90;;;;;;5115837;27;20081;-75
2022/12/27 06:08:31;;;;;;;6.53;1.65;;;4.10;99.90;;;;;;5107186;28;20047;-75
2022/12/27 06:11:09;;;;;;;6.22;1.33;;;4.20;99.90;;;;;;5099797;28;20484;-75
2022/12/27 06:13:36;;;;;;;8.38;1.58;;;4.20;99.90;;;;;;5087470;27;20047;-75
2022/12/27 06:16:03;;;;;;;6.10;2.30;;;4.40;99.90;;;;;;5077997;28;20051;-77
2022/12/27 06:18:31;;;;;;;8.27;1.40;;;4.10;99.90;;;;;;5061862;27;20494;-75
2022/12/27 06:21:18;;;;;;;2.25;1.05;;;4.10;99.90;;;;;;5097078;28;20083;-75
2022/12/27 06:23:44;;;;;;;9.77;2.38;;;4.10;99.90;;;;;;5094235;28;20098;-75
2022/12/27 06:26:22;;;;;;;5.70;1.38;;;4.00;99.90;;;;;;5077699;28;20075;-76
2022/12/27 06:28:49;;;;;;;10.57;1.38;;;4.00;99.90;;;;;;5095544;28;20128;-75
2022/12/27 06:31:16;;;;;;;9.35;1.50;;;4.10;99.90;;;;;;5095447;28;20048;-75
2022/12/27 06:33:42;;;;;;;7.45;1.48;;;3.90;99.90;;;;;;5095015;28;20093;-75
2022/12/27 06:36:10;;;;;;;7.45;1.52;;;4.20;99.90;;;;;;5095447;28;20048;-76
2022/12/27 06:38:36;;;;;;;6.53;1.88;;;3.80;99.90;;;;;;5109749;27;20398;-76
2022/12/27 06:41:04;;;;;;;6.78;1.50;;;3.90;99.90;;;;;;5097713;27;20047;-76
2022/12/27 06:43:30;;;;;;;9.57;1.80;;;3.90;99.90;;;;;;5115602;27;20082;-74
2022/12/27 06:46:02;;;;;;;10.73;1.85;;;4.10;99.90;;;;;;5098540;27;20161;-74
2022/12/27 06:48:29;;;;;;;6.63;1.40;;;3.90;99.90;;;;;;5097341;27;20051;-74
2022/12/27 06:50:54;;;;;;;6.57;1.42;;;3.90;99.90;;;;;;5115598;27;20080;-74
2022/12/27 06:53:20;;;;;;;11.98;1.88;;;3.90;99.90;;;;;;5115547;27;20043;-74
2022/12/27 06:55:46;;;;;;;6.72;1.42;;;3.90;99.90;;;;;;5098011;27;20043;-75
2022/12/27 06:58:12;;;;;;;6.93;1.45;;;3.90;99.90;;;;;;5113476;28;20051;-73
2022/12/27 07:00:39;;;;;;;8.45;1.88;;;3.90;99.90;;;;;;5097719;28;20057;-75
2022/12/27 07:03:04;;;;;;;11.95;2.00;;;3.90;99.90;;;;;;5094735;28;20054;-75
2022/12/27 07:05:30;;;;;;;4.90;1.55;;;4.00;99.90;;;;;;5094415;28;20039;-73
2022/12/27 07:07:56;;;;;;;10.32;2.45;;;4.30;99.90;;;;;;5088762;28;20124;-75
2022/12/27 07:10:22;;;;;;;9.32;1.90;;;4.00;99.90;;;;;;5080375;28;20380;-75
2022/12/27 07:12:48;;;;;;;7.80;1.60;;;4.00;99.90;;;;;;5098272;28;20084;-74
2022/12/27 07:15:14;;;;;;;8.25;1.98;;;4.10;99.90;;;;;;5104101;28;20084;-74
2022/12/27 07:17:39;;;;;;;10.25;2.03;;;4.00;99.90;;;;;;5084316;28;20126;-74
2022/12/27 07:20:06;;;;;;;11.30;2.33;;;4.00;99.90;;;;;;5077933;28;20540;-76
2022/12/27 07:22:32;;;;;;;12.48;2.30;;;4.00;99.90;;;;;;5096443;28;20051;-75
2022/12/27 07:24:58;;;;;;;5.22;1.70;;;3.90;99.90;;;;;;5118231;27;20478;-74
2022/12/27 07:27:24;;;;;;;8.80;3.75;;;3.90;99.90;;;;;;5099762;28;20058;-75
2022/12/27 07:29:49;;;;;;;3.60;2.00;;;4.00;99.90;;;;;;5095745;27;20398;-74
2022/12/27 07:32:15;;;;;;;6.18;2.47;;;4.00;99.90;;;;;;5097184;28;20128;-75
2022/12/27 07:34:41;;;;;;;11.63;1.75;;;3.90;99.90;;;;;;5093177;27;20444;-78
2022/12/27 07:37:06;;;;;;;11.25;2.60;;;3.90;99.90;;;;;;5084309;27;20039;-76
2022/12/27 07:39:32;;;;;;;10.20;1.80;;;4.70;99.90;;;;;;5118509;27;20463;-76
2022/12/27 07:41:58;;;;;;;9.10;1.88;;;3.80;99.90;;;;;;5118280;27;20092;-75
2022/12/27 07:44:23;;;;;;;9.02;1.90;;;3.90;99.90;;;;;;5118815;27;20119;-77
2022/12/27 07:46:50;;;;;;;2.70;1.60;;;3.80;99.90;;;;;;5094584;28;20039;-76
2022/12/27 07:49:16;;;;;;;3.40;1.13;;;3.90;99.90;;;;;;5096419;28;20047;-77
2022/12/27 07:51:41;;;;;;;6.13;2.00;;;3.90;99.90;;;;;;5096117;28;20047;-76
2022/12/27 07:54:07;;;;;;;7.13;1.48;;;3.90;99.90;;;;;;5096318;28;20593;-77
2022/12/27 07:56:33;;;;;;;6.88;1.67;;;3.80;99.90;;;;;;5079154;28;20040;-76
2022/12/27 07:59:00;;;;;;;11.05;1.88;;;3.90;99.90;;;;;;4728529;27;9999730;-76
2022/12/27 08:01:28;;;;;;;9.60;2.30;;;3.80;99.90;;;;;;5116389;27;20047;-76
2022/12/27 08:03:54;;;;;;;6.88;2.10;;;4.00;99.90;;;;;;5116208;27;20043;-76
2022/12/27 08:06:30;;;;;;;6.47;1.92;;;3.80;99.90;;;;;;5115041;27;20240;-77
2022/12/27 08:09:03;;;;;;;6.38;2.03;;;3.70;99.90;;;;;;5097313;27;20055;-76
2022/12/27 08:11:29;;;;;;;9.25;2.95;;;3.60;99.90;;;;;;5113646;27;20098;-77
2022/12/27 08:13:56;;;;;;;10.18;2.83;;;4.10;99.90;;;;;;5099245;28;20062;-76
2022/12/27 08:16:23;;;;;;;11.60;2.35;;;3.60;99.90;;;;;;5095689;28;20043;-78
2022/12/27 08:18:51;;;;;;;6.53;2.45;;;3.90;99.90;;;;;;5113249;27;20047;-81
2022/12/27 08:21:17;;;;;;;8.00;1.85;;;3.90;99.90;;;;;;5098971;27;20410;-77
2022/12/27 08:23:43;;;;;;;5.93;2.35;;;4.00;99.90;;;;;;5094374;28;20044;-77
2022/12/27 08:26:09;;;;;;;11.25;2.83;;;4.40;99.90;;;;;;5077889;27;20039;-76
2022/12/27 08:28:35;;;;;;;9.30;3.00;;;4.10;99.90;;;;;;5099029;27;20134;-78
2022/12/27 08:31:03;;;;;;;12.25;3.75;;;4.10;99.90;;;;;;5115339;27;20085;-76
2022/12/27 08:33:29;;;;;;;11.60;4.40;;;4.10;99.90;;;;;;5097611;27;20090;-76
2022/12/27 08:35:57;;;;;;;10.85;3.78;;;4.00;99.90;;;;;;5115582;27;20078;-76
2022/12/27 08:38:23;;;;;;;13.07;4.57;;;4.10;99.90;;;;;;5082579;27;20105;-75
2022/12/27 08:40:49;;;;;;;14.82;3.30;;;4.20;99.90;;;;;;5096055;27;20495;-76
2022/12/27 08:43:14;;;;;;;11.98;3.42;;;4.10;99.90;;;;;;5095604;28;20049;-75
2022/12/27 08:45:40;;;;;;;14.82;3.08;;;4.20;99.90;;;;;;5097478;28;20035;-75
2022/12/27 08:48:06;;;;;;;10.65;2.65;;;4.30;99.90;;;;;;5080548;28;20150;-75
2022/12/27 08:50:32;;;;;;;6.80;2.17;;;4.40;99.90;;;;;;5100347;28;20531;-75
2022/12/27 08:53:00;;;;;;;9.60;2.35;;;4.50;99.90;;;;;;5080287;28;20153;-75
2022/12/27 08:55:27;;;;;;;10.93;2.10;;;4.60;99.90;;;;;;5078920;28;20126;-76
2022/12/27 08:58:00;;;;;;;9.25;2.53;;;4.50;99.90;;;;;;5097105;28;20050;-75
2022/12/27 09:00:27;;;;;;;9.40;2.05;;;4.90;99.90;;;;;;5097374;28;20336;-76
2022/12/27 09:02:53;;;;;;;10.40;3.28;;;4.60;99.90;;;;;;5082159;27;20057;-75
2022/12/27 09:05:20;;;;;;;8.63;1.83;;;4.60;99.90;;;;;;5100478;27;20058;-75
2022/12/27 09:07:46;;;;;;;13.55;2.50;;;4.90;99.90;;;;;;5100136;27;20599;-76
2022/12/27 09:10:13;;;;;;;9.98;2.38;;;5.00;99.90;;;;;;5100715;27;20111;-76
2022/12/27 09:12:39;;;;;;;12.05;3.53;;;4.80;99.90;;;;;;5117478;27;20103;-74
2022/12/27 09:15:05;;;;;;;10.60;2.38;;;4.80;99.90;;;;;;5100104;27;20046;-75
2022/12/27 09:17:31;;;;;;;13.10;3.15;;;4.90;99.90;;;;;;5099972;27;20513;-75
2022/12/27 09:19:57;;;;;;;12.57;2.40;;;4.90;99.90;;;;;;5105290;28;20088;-75
2022/12/27 09:22:23;;;;;;;11.93;2.65;;;5.00;99.90;;;;;;5090011;28;20127;-75
2022/12/27 09:24:48;;;;;;;6.35;1.88;;;5.00;99.90;;;;;;5063131;28;20066;-76
2022/12/27 09:27:14;;;;;;;9.25;2.10;;;5.10;99.90;;;;;;5096354;28;20475;-75
2022/12/27 09:29:40;;;;;;;8.73;2.47;;;5.10;99.90;;;;;;5079834;28;20055;-76
2022/12/27 09:32:05;;;;;;;8.57;2.25;;;5.20;99.90;;;;;;5106858;27;20608;-76
2022/12/27 09:34:31;;;;;;;14.75;4.03;;;5.20;99.90;;;;;;5103082;28;20048;-75
2022/12/27 09:36:57;;;;;;;10.98;2.63;;;5.30;99.90;;;;;;5114592;27;20059;-76
2022/12/27 09:39:22;;;;;;;10.15;2.42;;;5.30;99.90;;;;;;5106447;28;20074;-76
2022/12/27 09:42:02;;;;;;;7.20;1.95;;;5.40;99.90;;;;;;5096193;28;20126;-75
2022/12/27 09:44:52;;;;;;;8.40;2.53;;;5.50;99.90;;;;;;5078699;28;20401;-75
2022/12/27 09:47:38;;;;;;;7.82;2.25;;;5.50;99.90;;;;;;5122308;27;20043;-76
2022/12/27 09:50:19;;;;;;;12.40;2.35;;;5.60;99.90;;;;;;5101725;28;20462;-75
2022/12/27 09:53:02;;;;;;;10.13;2.40;;;5.60;99.90;;;;;;5109120;27;20047;-75
2022/12/27 09:55:49;;;;;;;15.25;2.80;;;5.70;99.90;;;;;;5094668;28;20073;-75
2022/12/27 09:58:58;;;;;;;12.32;2.42;;;5.80;99.90;;;;;;5078980;28;20430;-76
2022/12/27 10:01:29;;;;;;;16.25;2.75;;;5.80;99.90;;;;;;5077929;28;20057;-76
2022/12/27 10:03:55;;;;;;;;;;;5.90;99.90;;;;;;5094133;27;20050;-75
2022/12/27 10:06:48;;;;;;;8.35;1.75;;;5.90;99.90;;;;;;5100665;28;19920;-76
2022/12/27 10:09:42;;;;;;;5.68;1.98;;;6.00;99.90;;;;;;5087317;28;20263;-76
2022/12/27 10:12:39;;;;;;;12.93;2.67;;;6.10;99.90;;;;;;5094325;28;20039;-76
2022/12/27 10:15:23;;;;;;;8.52;2.30;;;6.10;99.90;;;;;;5109846;27;20058;-76
2022/12/27 10:18:03;;;;;;;10.02;2.70;;;6.10;99.90;;;;;;5098597;27;20130;-76
2022/12/27 10:20:35;;;;;;;7.20;1.83;;;6.20;99.90;;;;;;5078188;28;20048;-76
2022/12/27 10:23:09;;;;;;;9.73;2.33;;;6.30;99.90;;;;;;5085039;28;20375;-78
2022/12/27 10:25:37;;;;;;;12.60;2.08;;;6.30;99.90;;;;;;5078776;28;20044;-75
2022/12/27 10:28:16;;;;;;;10.07;2.55;;;6.30;99.90;;;;;;5087601;27;20490;-75
2022/12/27 10:30:42;;;;;;;10.45;2.30;;;6.40;99.90;;;;;;5099015;27;20047;-75
2022/12/27 10:33:27;;;;;;;9.70;2.58;;;6.50;99.90;;;;;;5098564;27;20147;-77
2022/12/27 10:35:53;;;;;;;8.45;2.53;;;6.60;99.90;;;;;;5109043;27;20098;-76
2022/12/27 10:38:19;;;;;;;10.30;2.25;;;6.80;99.90;;;;;;5099298;28;20047;-77
2022/12/27 10:41:11;;;;;;;10.80;2.33;;;6.80;99.90;;;;;;5113834;27;20043;-76
2022/12/27 10:43:41;;;;;;;9.10;2.15;;;6.90;99.90;;;;;;4751230;28;9999956;-76
2022/12/27 10:46:12;;;;;;;8.23;2.50;;;6.90;99.90;;;;;;5082018;27;20035;-76
2022/12/27 10:48:38;;;;;;;7.13;2.10;;;7.00;99.90;;;;;;5074920;28;20445;-79
2022/12/27 10:51:09;;;;;;;9.70;2.75;;;7.00;99.90;;;;;;5077853;27;20055;-76
2022/12/27 10:53:57;;;;;;;9.32;2.20;;;7.10;99.90;;;;;;5095817;27;20975;-76
2022/12/27 10:56:40;;;;;;;11.57;2.63;;;7.10;99.90;;;;;;5107261;28;20043;-76
2022/12/27 10:59:11;;;;;;;12.15;2.55;;;7.10;99.90;;;;;;5072150;28;20048;-75
2022/12/27 11:01:37;;;;;;;;;;;7.20;99.90;;;;;;5100680;28;20043;-77
2022/12/27 11:04:10;;;;;;;10.35;2.50;;;7.30;99.90;;;;;;5102280;28;19923;-77
2022/12/27 11:06:36;;;;;;;19.67;6.38;;;7.40;99.90;;;;;;5093880;27;20066;-77
2022/12/27 11:09:27;;;;;;;9.25;2.53;;;7.40;99.90;;;;;;5112858;28;20051;-75
2022/12/27 11:12:13;;;;;;;10.93;2.78;;;7.50;99.90;;;;;;5112738;28;20503;-75
2022/12/27 11:14:53;;;;;;;10.98;3.53;;;7.60;99.90;;;;;;5112917;28;20483;-77
2022/12/27 11:17:22;;;;;;;9.68;2.92;;;7.80;99.90;;;;;;5095012;28;20368;-76
2022/12/27 11:19:49;;;;;;;10.52;2.67;;;7.80;99.90;;;;;;5112930;28;20130;-76
2022/12/27 11:22:15;;;;;;;8.68;2.63;;;7.80;99.90;;;;;;5112818;28;20686;-76
2022/12/27 11:24:50;;;;;;;9.93;3.35;;;8.00;99.90;;;;;;5095959;28;20050;-76
2022/12/27 11:27:26;;;;;;;9.98;2.60;;;8.30;99.90;;;;;;5073138;28;20530;-75
2022/12/27 11:29:55;;;;;;;13.02;2.17;;;8.50;99.90;;;;;;5075356;28;20052;-76
2022/12/27 11:32:23;;;;;;;6.18;1.42;;;8.30;99.90;;;;;;5075385;28;20055;-77
2022/12/27 11:34:52;;;;;;;13.65;2.20;;;8.20;99.90;;;;;;5075894;28;20055;-76
2022/12/27 11:37:22;;;;;;;9.48;1.83;;;8.30;99.90;;;;;;5095651;28;20050;-76
2022/12/27 11:39:50;;;;;;;10.02;2.10;;;8.10;99.90;;;;;;5095714;28;20043;-76
2022/12/27 11:42:20;;;;;;;11.15;1.70;;;8.10;99.90;;;;;;5111966;28;20111;-76
2022/12/27 11:44:56;;;;;;;5.65;1.90;;;8.00;99.90;;;;;;5095676;28;20047;-76
2022/12/27 11:47:42;;;;;;;13.60;2.30;;;7.80;99.90;;;;;;5112299;28;20483;-75
2022/12/27 11:50:36;;;;;;;9.40;2.22;;;7.60;99.90;;;;;;5112632;28;20079;-76
2022/12/27 11:53:08;;;;;;;9.95;2.22;;;7.50;99.90;;;;;;5112518;28;20047;-76
2022/12/27 11:55:52;;;;;;;12.32;2.10;;;7.50;99.90;;;;;;5103650;28;20051;-76
2022/12/27 11:58:54;;;;;;;7.32;1.98;;;7.80;99.90;;;;;;5107431;28;20051;-79
2022/12/27 12:01:52;;;;;;;15.05;2.80;;;8.30;99.90;;;;;;5093935;28;20565;-75
2022/12/27 12:04:49;;;;;;;11.10;2.40;;;8.60;99.90;;;;;;5101175;28;20047;-76
2022/12/27 12:07:52;;;;;;;8.80;2.20;;;9.00;99.90;;;;;;5106660;28;20488;-76
2022/12/27 12:10:24;;;;;;;7.00;2.13;;;9.30;99.90;;;;;;5128677;27;20039;-76
2022/12/27 12:13:17;;;;;;;10.43;2.22;;;9.50;99.90;;;;;;5101603;27;20482;-76
2022/12/27 12:16:01;;;;;;;12.82;2.03;;;9.80;99.90;;;;;;5109898;28;20043;-76
2022/12/27 12:18:55;;;;;;;8.05;1.52;;;9.80;99.90;;;;;;5106832;28;20047;-76
2022/12/27 12:21:33;;;;;;;5.85;1.65;;;9.80;99.90;;;;;;5042611;28;20060;-77
2022/12/27 12:24:11;;;;;;;6.55;1.95;;;9.90;99.90;;;;;;5090078;27;20078;-76
2022/12/27 12:26:55;;;;;;;10.95;1.70;;;9.60;99.90;;;;;;5118069;27;20160;-77
2022/12/27 12:29:42;;;;;;;5.85;2.10;;;9.90;99.90;;;;;;5099118;27;20408;-76
2022/12/27 12:32:20;;;;;;;9.63;2.38;;;10.00;99.90;;;;;;5105494;27;20130;-76
2022/12/27 12:35:17;;;;;;;13.23;1.67;;;9.40;99.90;;;;;;5097636;28;20062;-76
2022/12/27 12:38:12;;;;;;;7.82;1.90;;;9.20;99.90;;;;;;5109671;27;20047;-77
2022/12/27 12:40:58;;;;;;;5.80;1.88;;;8.80;99.90;;;;;;5094263;28;20048;-75
2022/12/27 12:43:29;;;;;;;4.65;1.85;;;9.00;99.90;;;;;;5099623;27;20412;-77
2022/12/27 12:46:12;;;;;;;;;;;9.50;99.90;;;;;;5108207;28;20494;-76
2022/12/27 12:48:49;;;;;;;8.88;1.77;;;9.50;99.90;;;;;;5105513;27;19992;-76
2022/12/27 12:51:24;;;;;;;5.72;1.92;;;10.00;99.90;;;;;;5098560;27;20049;-76
2022/12/27 12:54:25;;;;;;;7.65;1.85;;;10.20;99.90;;;;;;5098837;28;20483;-76
2022/12/27 12:57:22;;;;;;;10.50;1.98;;;10.00;99.90;;;;;;5116355;27;20043;-76
2022/12/27 13:00:08;;;;;;;6.75;1.50;;;9.80;99.90;;;;;;5097453;28;20051;-79
2022/12/27 13:02:58;;;;;;;9.05;1.33;;;9.70;99.90;;;;;;5115000;27;20058;-77
2022/12/27 13:05:39;;;;;;;11.13;1.90;;;9.40;99.90;;;;;;5098033;27;20039;-76
2022/12/27 13:08:05;;;;;;;8.75;1.88;;;8.90;99.90;;;;;;5091283;28;20116;-77
2022/12/27 13:10:49;;;;;;;9.27;1.83;;;8.70;99.90;;;;;;5095673;28;20047;-76
2022/12/27 13:13:52;;;;;;;6.18;1.52;;;8.50;99.90;;;;;;5107805;27;20089;-76
2022/12/27 13:16:36;;;;;;;7.28;1.80;;;8.30;99.90;;;;;;5106344;28;20433;-81
2022/12/27 13:19:15;;;;;;;9.55;1.67;;;8.10;99.90;;;;;;5106066;28;20051;-76
2022/12/27 13:21:47;;;;;;;12.70;2.45;;;7.90;99.90;;;;;;5094572;27;20051;-76
2022/12/27 13:24:24;;;;;;;10.07;2.15;;;7.80;99.90;;;;;;5096160;28;20043;-75
2022/12/27 13:27:19;;;;;;;4.90;2.08;;;7.70;99.90;;;;;;5104562;27;20122;-75
2022/12/27 13:30:09;;;;;;;7.75;2.40;;;7.70;99.90;;;;;;5103838;28;20117;-76
2022/12/27 13:32:47;;;;;;;11.32;3.40;;;7.70;99.90;;;;;;5079375;28;20425;-75
2022/12/27 13:35:28;;;;;;;12.55;3.00;;;7.70;99.90;;;;;;5079753;28;20134;-77
2022/12/27 13:38:11;;;;;;;8.15;2.45;;;7.70;99.90;;;;;;5096629;28;20136;-76
2022/12/27 13:40:58;;;;;;;12.20;3.38;;;7.70;99.90;;;;;;5097324;27;20047;-76
2022/12/27 13:43:43;;;;;;;9.40;2.55;;;7.60;99.90;;;;;;5096330;28;20047;-76
2022/12/27 13:46:19;;;;;;;7.55;1.90;;;7.50;99.90;;;;;;5110892;27;20047;-77
2022/12/27 13:49:20;;;;;;;8.95;2.40;;;7.40;99.90;;;;;;5097993;28;20048;-77
2022/12/27 13:51:50;;;;;;;9.33;2.50;;;7.30;99.90;;;;;;5111671;28;20054;-75
2022/12/27 13:54:38;;;;;;;11.97;2.10;;;7.20;99.90;;;;;;5096232;28;20104;-76
2022/12/27 13:57:10;;;;;;;11.30;2.88;;;7.10;99.90;;;;;;5096123;28;20548;-76
2022/12/27 13:59:58;;;;;;;10.60;2.70;;;7.00;99.90;;;;;;5095830;28;20501;-76
2022/12/27 14:02:27;;;;;;;10.90;2.80;;;7.00;99.90;;;;;;5079155;28;20079;-77
2022/12/27 14:05:31;;;;;;;8.05;2.53;;;6.90;99.90;;;;;;5113016;27;20043;-75
2022/12/27 14:08:11;;;;;;;11.40;2.80;;;6.70;99.90;;;;;;5101090;27;20059;-78
2022/12/27 14:10:51;;;;;;;13.10;2.95;;;6.80;99.90;;;;;;5105386;27;20126;-77
2022/12/27 14:13:39;;;;;;;8.43;2.80;;;6.70;99.90;;;;;;5103375;28;20544;-76
2022/12/27 14:16:29;;;;;;;12.43;2.88;;;6.70;99.90;;;;;;5112682;28;20059;-74
2022/12/27 14:19:01;;;;;;;8.45;2.80;;;6.60;99.90;;;;;;5094672;28;20115;-75
2022/12/27 14:21:30;;;;;;;13.32;3.10;;;6.60;99.90;;;;;;5094324;28;20445;-75
2022/12/27 14:23:58;;;;;;;12.77;2.88;;;6.50;99.90;;;;;;5111098;27;20042;-75
2022/12/27 14:26:57;;;;;;;14.23;3.80;;;6.50;99.90;;;;;;5115638;27;20487;-75
2022/12/27 14:29:23;;;;;;;11.85;3.58;;;6.40;99.90;;;;;;5098154;27;20043;-75
2022/12/27 14:32:15;;;;;;;11.43;3.15;;;6.40;99.90;;;;;;5115108;27;20039;-76
2022/12/27 14:35:02;;;;;;;10.23;3.70;;;6.50;99.90;;;;;;5095024;28;20131;-77
2022/12/27 14:37:28;;;;;;;11.63;3.80;;;6.40;99.90;;;;;;5095268;28;20047;-78
2022/12/27 14:40:30;;;;;;;13.73;4.03;;;6.40;99.90;;;;;;5111960;27;20080;-77
2022/12/27 14:43:43;;;;;;;14.00;4.28;;;6.40;99.90;;;;;;5094383;28;20073;-75
2022/12/27 14:46:36;;;;;;;11.50;3.35;;;6.40;99.90;;;;;;5095059;28;20035;-76
2022/12/27 14:49:31;;;;;;;12.38;4.53;;;6.30;99.90;;;;;;5102275;27;20142;-75
2022/12/27 14:52:18;;;;;;;12.68;3.70;;;6.40;99.90;;;;;;5097548;27;20039;-75
2022/12/27 14:55:02;;;;;;;13.13;5.57;;;6.40;99.90;;;;;;5107656;28;20043;-76
2022/12/27 14:57:28;;;;;;;15.18;5.78;;;6.40;99.90;;;;;;5095164;28;20087;-75
2022/12/27 14:59:54;;;;;;;15.48;6.45;;;6.40;99.90;;;;;;5104795;27;20054;-75
2022/12/27 15:02:35;;;;;;;14.93;6.72;;;6.40;99.90;;;;;;5077374;28;20059;-76
2022/12/27 15:05:15;;;;;;;14.10;7.57;;;6.40;99.90;;;;;;5078256;28;20180;-76
2022/12/27 15:08:19;;;;;;;12.30;6.93;;;6.40;99.90;;;;;;5073100;28;20052;-76
2022/12/27 15:10:53;;;;;;;19.08;7.15;;;6.40;99.90;;;;;;5015672;28;20080;-75
2022/12/27 15:13:55;;;;;;;15.90;7.65;;;6.30;99.90;;;;;;5032437;28;20060;-75
2022/12/27 15:16:52;;;;;;;14.65;8.63;;;6.20;99.90;;;;;;5086194;28;20083;-76
2022/12/27 15:19:25;;;;;;;16.75;8.32;;;6.10;99.90;;;;;;5098120;28;20038;-75